Time;durP1;ratioP1;P1;durP2;ratioP2;P2;SDS_P1;SDS_P2;PMS_P1;PMS_P2;Temp;Humidity;BMP_temperature;BMP_pressure;BME280_temperature;BME280_humidity;BME280_pressure;Samples;Min_cycle;Max_cycle;Signal;HPM_P1;HPM_P2
2022/11/05 00:09:29;;;;;;;2.22;2.03;;;;;;;;;;5036724;28;20386;-87
2022/11/05 00:17:29;;;;;;;2.40;2.20;;;;;;;;;;5035844;28;20370;-88
2022/11/05 00:19:55;;;;;;;2.30;2.10;;;;;;;;;;5035697;28;20752;-88
2022/11/05 00:25:15;;;;;;;2.33;2.13;;;;;;;;;;5040022;28;20382;-87
2022/11/05 00:27:43;;;;;;;1.87;1.77;;;;;;;;;;5036064;28;20429;-87
2022/11/05 00:30:09;;;;;;;3.10;2.80;;;;;;;;;;5037675;28;20902;-87
2022/11/05 00:32:35;;;;;;;4.40;2.80;;;;;;;;;;5037617;28;20410;-87
2022/11/05 00:35:01;;;;;;;5.70;3.45;;;;;;;;;;5037493;28;20921;-87
2022/11/05 00:37:28;;;;;;;3.45;2.20;;;;;;;;;;5055535;28;20383;-87
2022/11/05 00:39:54;;;;;;;4.57;2.63;;;;;;;;;;5055674;28;20900;-86
2022/11/05 00:45:05;;;;;;;2.20;2.00;;;;;;;;;;5028100;28;20379;-88
2022/11/05 00:50:17;;;;;;;1.80;1.60;;;;;;;;;;5036819;28;20414;-87
2022/11/05 00:52:55;;;;;;;1.40;1.30;;;;;;;;;;5035229;28;20398;-88
2022/11/05 00:55:23;;;;;;;1.30;1.20;;;;;;;;;;5036286;28;20379;-87
2022/11/05 00:57:49;;;;;;;1.70;1.50;;;;;;;;;;5038635;28;20486;-88
2022/11/05 06:00:15;;;;;;;4.43;4.13;;;;;;;;;;6083351;23;20328;-88
2022/11/05 06:02:41;;;;;;;4.78;4.47;;;;;;;;;;5026668;23;20484;-91
2022/11/05 06:05:08;;;;;;;5.10;4.80;;;;;;;;;;5003447;28;20500;-90
2022/11/05 06:07:45;;;;;;;5.55;5.13;;;;;;;;;;5013930;28;20376;-90
2022/11/05 06:10:11;;;;;;;5.35;4.97;;;;;;;;;;5013792;28;20464;-90
2022/11/05 06:12:37;;;;;;;5.55;5.15;;;;;;;;;;5025697;28;20399;-89
2022/11/05 06:15:03;;;;;;;5.63;5.25;;;;;;;;;;5020778;28;20378;-90
2022/11/05 06:17:29;;;;;;;5.68;5.28;;;;;;;;;;5004683;28;20464;-92
2022/11/05 06:19:55;;;;;;;5.60;5.20;;;;;;;;;;5013462;28;20467;-91
2022/11/05 06:22:21;;;;;;;5.20;4.90;;;;;;;;;;5013566;28;20392;-89
2022/11/05 06:24:47;;;;;;;4.67;4.37;;;;;;;;;;5012507;28;20400;-88
2022/11/05 06:27:13;;;;;;;4.97;4.68;;;;;;;;;;5010875;28;20411;-92
2022/11/05 06:29:39;;;;;;;4.50;4.20;;;;;;;;;;5014301;28;20472;-91
2022/11/05 06:32:05;;;;;;;4.60;4.30;;;;;;;;;;5025706;28;20893;-90
2022/11/05 06:34:31;;;;;;;5.25;4.88;;;;;;;;;;5013359;28;20392;-90
2022/11/05 06:36:57;;;;;;;5.75;5.35;;;;;;;;;;5013173;28;20413;-90
2022/11/05 06:39:23;;;;;;;5.95;5.55;;;;;;;;;;5013368;28;20719;-90
2022/11/05 06:41:49;;;;;;;6.13;5.60;;;;;;;;;;5026994;28;20387;-91
2022/11/05 06:44:15;;;;;;;5.90;5.40;;;;;;;;;;5013397;28;20885;-89
2022/11/05 06:46:41;;;;;;;5.43;4.93;;;;;;;;;;5022433;28;20373;-89
2022/11/05 06:49:07;;;;;;;4.72;4.43;;;;;;;;;;5035915;28;20418;-89
2022/11/05 06:51:36;;;;;;;5.20;4.87;;;;;;;;;;5041557;28;20430;-90
2022/11/05 07:09:17;;;;;;;5.22;4.82;;;;;;;;;;5044630;28;20464;-92
2022/11/05 07:14:32;;;;;;;4.57;4.27;;;;;;;;;;5179676;23;20466;-91
2022/11/05 07:20:28;;;;;;;;;;;;;;;;;;;;;
2022/11/05 07:26:50;;;;;;;;;;;;;;;;;;;;;
2022/11/05 07:29:25;;;;;;;4.90;4.60;;;;;;;;;;4892584;29;20391;-93
2022/11/05 07:32:06;;;;;;;5.10;4.70;;;;;;;;;;4881759;29;20427;-94
2022/11/05 08:18:10;;;;;;;4.65;4.35;;;;;;;;;;6107758;23;21268;-92
2022/11/05 08:23:12;;;;;;;5.30;5.00;;;;;;;;;;5041267;28;20875;-91
2022/11/05 08:25:38;;;;;;;5.50;5.03;;;;;;;;;;5029682;28;20973;-90
2022/11/05 08:28:06;;;;;;;6.05;5.55;;;;;;;;;;5036531;28;20429;-87
2022/11/05 08:30:33;;;;;;;4.70;4.40;;;;;;;;;;5017540;28;20883;-87
2022/11/05 08:33:00;;;;;;;5.00;4.60;;;;;;;;;;5035222;28;20379;-86
2022/11/05 08:35:27;;;;;;;4.57;4.28;;;;;;;;;;5035202;28;20467;-88
2022/11/05 08:38:01;;;;;;;4.05;3.75;;;;;;;;;;5017334;28;20379;-87
2022/11/05 08:40:28;;;;;;;3.88;3.67;;;;;;;;;;5012187;28;20409;-88
2022/11/05 08:42:56;;;;;;;3.47;3.28;;;;;;;;;;5035069;28;20379;-88
2022/11/05 08:45:23;;;;;;;3.30;3.10;;;;;;;;;;5035237;28;20387;-88
2022/11/05 08:47:49;;;;;;;3.10;2.90;;;;;;;;;;5035050;28;20848;-88
2022/11/05 08:50:15;;;;;;;2.97;2.78;;;;;;;;;;5035062;28;20394;-88
2022/11/05 08:52:41;;;;;;;2.85;2.65;;;;;;;;;;5034961;28;20827;-88
2022/11/05 08:55:08;;;;;;;3.00;2.80;;;;;;;;;;5034998;28;20383;-88
2022/11/05 08:57:34;;;;;;;2.10;2.00;;;;;;;;;;5026298;28;20475;-89
2022/11/05 09:00:00;;;;;;;2.33;2.13;;;;;;;;;;5034765;28;20391;-89
2022/11/05 09:02:26;;;;;;;2.58;2.40;;;;;;;;;;5034603;28;20458;-87
2022/11/05 09:04:52;;;;;;;3.33;2.20;;;;;;;;;;5014200;28;20487;-88
2022/11/05 09:07:18;;;;;;;2.35;2.20;;;;;;;;;;5034864;28;20387;-88
2022/11/05 09:09:44;;;;;;;2.75;2.38;;;;;;;;;;5033786;28;20387;-88
2022/11/05 09:12:10;;;;;;;3.00;2.72;;;;;;;;;;5034583;28;20493;-88
2022/11/05 09:14:35;;;;;;;2.00;1.80;;;;;;;;;;5034591;28;20376;-88
2022/11/05 09:17:01;;;;;;;2.10;1.90;;;;;;;;;;5023174;28;20853;-88
2022/11/05 09:19:27;;;;;;;2.35;2.15;;;;;;;;;;5032140;28;20371;-88
2022/11/05 09:21:53;;;;;;;1.90;1.80;;;;;;;;;;5034343;28;20395;-89
2022/11/05 09:24:19;;;;;;;1.85;1.67;;;;;;;;;;5034289;28;20379;-88
2022/11/05 09:26:45;;;;;;;2.92;2.63;;;;;;;;;;5016592;28;20398;-89
2022/11/05 09:29:11;;;;;;;2.97;2.77;;;;;;;;;;5034463;28;20554;-88
2022/11/05 09:31:40;;;;;;;3.72;2.20;;;;;;;;;;5034314;28;20451;-88
2022/11/05 09:34:06;;;;;;;2.50;2.30;;;;;;;;;;5034176;28;20385;-89
2022/11/05 09:36:32;;;;;;;2.20;2.00;;;;;;;;;;5034262;28;20458;-88
2022/11/05 09:38:58;;;;;;;1.73;1.63;;;;;;;;;;5034226;28;20478;-89
2022/11/05 09:41:28;;;;;;;2.10;1.63;;;;;;;;;;5033978;28;20383;-89
2022/11/05 09:43:57;;;;;;;2.65;2.08;;;;;;;;;;5034093;28;20379;-89
2022/11/05 09:46:26;;;;;;;2.50;2.30;;;;;;;;;;5034104;28;20405;-89
2022/11/05 09:49:03;;;;;;;2.28;2.17;;;;;;;;;;5033981;28;20454;-88
2022/11/05 09:51:29;;;;;;;2.00;1.90;;;;;;;;;;5034095;28;20407;-87
2022/11/05 09:53:55;;;;;;;1.85;1.75;;;;;;;;;;5034307;28;20422;-88
2022/11/05 09:56:26;;;;;;;2.53;2.33;;;;;;;;;;5026019;28;20403;-90
2022/11/05 09:59:04;;;;;;;1.90;1.80;;;;;;;;;;5011650;28;20380;-89
2022/11/05 10:01:35;;;;;;;2.10;1.80;;;;;;;;;;5025119;28;20394;-90
2022/11/05 10:04:13;;;;;;;1.75;1.65;;;;;;;;;;5019414;28;20477;-89
2022/11/05 10:06:44;;;;;;;1.77;1.67;;;;;;;;;;5021604;28;20385;-89
2022/11/05 10:09:16;;;;;;;2.17;1.98;;;;;;;;;;5008025;28;20391;-90
2022/11/05 10:11:47;;;;;;;2.05;1.95;;;;;;;;;;5033378;28;20476;-88
2022/11/05 10:14:16;;;;;;;1.85;1.70;;;;;;;;;;5033481;28;20410;-90
2022/11/05 10:16:45;;;;;;;2.20;2.03;;;;;;;;;;5027026;28;20412;-88
2022/11/05 10:19:14;;;;;;;2.17;1.98;;;;;;;;;;5028846;28;20384;-90
2022/11/05 10:21:40;;;;;;;2.15;1.95;;;;;;;;;;5024693;28;20405;-89
2022/11/05 10:24:12;;;;;;;2.10;2.00;;;;;;;;;;5027372;28;20382;-89
2022/11/05 10:26:38;;;;;;;1.95;1.75;;;;;;;;;;5027979;28;20396;-88
2022/11/05 10:29:04;;;;;;;1.80;1.70;;;;;;;;;;5044853;28;20391;-88
2022/11/05 10:31:34;;;;;;;2.30;2.13;;;;;;;;;;5038382;28;20407;-89
2022/11/05 10:34:01;;;;;;;1.75;1.65;;;;;;;;;;5035408;28;20371;-89
2022/11/05 10:36:30;;;;;;;1.60;1.50;;;;;;;;;;5034646;28;20443;-86
2022/11/05 10:38:58;;;;;;;1.70;1.30;;;;;;;;;;5025753;28;20411;-88
2022/11/05 10:41:24;;;;;;;1.60;1.50;;;;;;;;;;5020647;28;20435;-89
2022/11/05 10:43:51;;;;;;;2.17;1.60;;;;;;;;;;5022330;28;20740;-90
2022/11/05 10:46:37;;;;;;;1.48;1.38;;;;;;;;;;5024120;28;20381;-92
2022/11/05 10:49:03;;;;;;;1.38;1.27;;;;;;;;;;5019878;28;20403;-91
2022/11/05 10:51:31;;;;;;;1.90;1.80;;;;;;;;;;5026480;28;20407;-88
2022/11/05 10:54:04;;;;;;;2.20;2.00;;;;;;;;;;5033104;28;20390;-87
2022/11/05 10:56:37;;;;;;;2.20;1.83;;;;;;;;;;5006305;28;20481;-88
2022/11/05 10:59:04;;;;;;;1.77;1.60;;;;;;;;;;5032293;28;20379;-88
2022/11/05 11:01:30;;;;;;;1.70;1.60;;;;;;;;;;5014810;28;20388;-89
2022/11/05 11:04:07;;;;;;;1.70;1.60;;;;;;;;;;5032011;28;20422;-91
2022/11/05 11:06:36;;;;;;;1.45;1.35;;;;;;;;;;5032329;28;20441;-88
2022/11/05 11:09:05;;;;;;;2.00;1.80;;;;;;;;;;5033702;28;20391;-89
2022/11/05 11:11:42;;;;;;;1.77;1.67;;;;;;;;;;5033719;28;20893;-89
2022/11/05 11:14:13;;;;;;;1.80;1.50;;;;;;;;;;5031090;28;20864;-86
2022/11/05 11:16:41;;;;;;;1.97;1.87;;;;;;;;;;5032437;28;20386;-87
2022/11/05 11:19:36;;;;;;;2.47;2.28;;;;;;;;;;5031025;28;20390;-87
2022/11/05 11:22:04;;;;;;;2.15;1.95;;;;;;;;;;5013611;28;20419;-89
2022/11/05 11:24:36;;;;;;;1.80;1.70;;;;;;;;;;5013775;28;20744;-89
2022/11/05 11:27:05;;;;;;;1.77;1.67;;;;;;;;;;5031939;28;20883;-87
2022/11/05 11:29:34;;;;;;;1.80;1.70;;;;;;;;;;5032857;28;20390;-89
2022/11/05 11:32:01;;;;;;;2.38;1.60;;;;;;;;;;5031634;28;20409;-90
2022/11/05 11:34:29;;;;;;;1.70;1.60;;;;;;;;;;5032097;28;20395;-87
2022/11/05 11:37:00;;;;;;;1.65;1.55;;;;;;;;;;5032706;28;20394;-87
2022/11/05 11:39:29;;;;;;;2.15;1.95;;;;;;;;;;5022696;28;20887;-92
2022/11/05 11:42:00;;;;;;;2.70;2.50;;;;;;;;;;5013997;28;20426;-92
2022/11/05 11:44:28;;;;;;;2.40;2.20;;;;;;;;;;5000388;28;20394;-91
2022/11/05 11:47:00;;;;;;;2.25;2.05;;;;;;;;;;5031711;28;20883;-90
2022/11/05 11:49:42;;;;;;;1.90;1.80;;;;;;;;;;5014159;28;20391;-92
2022/11/05 11:52:31;;;;;;;2.40;1.70;;;;;;;;;;5113327;23;20582;-91
2022/11/05 11:55:32;;;;;;;1.92;1.83;;;;;;;;;;5018653;28;20473;-92
2022/11/05 11:58:27;;;;;;;1.90;1.80;;;;;;;;;;5010759;28;20456;-92
2022/11/05 12:06:44;;;;;;;2.70;1.73;;;;;;;;;;5021368;28;20921;-93
2022/11/05 12:16:05;;;;;;;2.20;2.10;;;;;;;;;;5012929;28;20474;-95
2022/11/05 12:18:51;;;;;;;1.88;1.77;;;;;;;;;;5002023;28;20381;-93
2022/11/05 12:21:20;;;;;;;2.33;2.00;;;;;;;;;;5022976;28;20387;-89
2022/11/05 12:23:46;;;;;;;1.80;1.70;;;;;;;;;;5030704;28;20387;-90
2022/11/05 12:26:31;;;;;;;2.45;2.00;;;;;;;;;;5015355;28;20435;-90
2022/11/05 12:29:20;;;;;;;2.95;2.65;;;;;;;;;;5015219;28;20784;-89
2022/11/05 12:31:49;;;;;;;2.00;1.80;;;;;;;;;;4988905;28;20415;-92
2022/11/05 12:34:25;;;;;;;1.80;1.70;;;;;;;;;;5011870;28;20381;-87
2022/11/05 12:36:51;;;;;;;2.70;1.63;;;;;;;;;;5015991;28;20420;-91
2022/11/05 12:39:34;;;;;;;2.10;1.85;;;;;;;;;;5017511;28;20412;-90
2022/11/05 12:42:24;;;;;;;2.10;1.63;;;;;;;;;;5030732;28;20386;-91
2022/11/05 12:44:56;;;;;;;2.05;1.75;;;;;;;;;;5034071;28;20418;-89
2022/11/05 12:47:31;;;;;;;2.10;1.90;;;;;;;;;;5034204;28;20419;-91
2022/11/05 12:49:58;;;;;;;2.40;2.20;;;;;;;;;;5035291;28;20414;-91
2022/11/05 12:52:48;;;;;;;5.10;2.85;;;;;;;;;;5017506;28;20981;-91
2022/11/05 12:55:21;;;;;;;2.03;1.80;;;;;;;;;;5035368;28;20383;-92
2022/11/05 12:57:49;;;;;;;2.10;1.80;;;;;;;;;;5015458;28;20969;-92
2022/11/05 13:00:19;;;;;;;2.90;2.27;;;;;;;;;;5019009;28;20423;-90
2022/11/05 13:02:45;;;;;;;2.90;2.70;;;;;;;;;;5023664;28;20455;-90
2022/11/05 13:05:17;;;;;;;2.50;2.20;;;;;;;;;;5015439;28;20392;-92
2022/11/05 13:08:01;;;;;;;2.42;2.22;;;;;;;;;;5024384;28;20414;-91
2022/11/05 13:10:40;;;;;;;2.60;2.40;;;;;;;;;;5017899;28;20393;-91
2022/11/05 13:13:06;;;;;;;2.13;1.77;;;;;;;;;;5017916;28;20448;-92
2022/11/05 13:15:35;;;;;;;2.40;1.80;;;;;;;;;;5015960;28;20467;-91
2022/11/05 13:18:05;;;;;;;2.25;1.60;;;;;;;;;;5018700;28;20396;-92
2022/11/05 13:20:36;;;;;;;1.85;1.70;;;;;;;;;;5017704;28;20381;-89
2022/11/05 13:23:02;;;;;;;4.93;4.53;;;;;;;;;;5021448;28;20383;-91
2022/11/05 13:25:29;;;;;;;2.80;2.60;;;;;;;;;;5025026;28;20424;-88
2022/11/05 13:27:55;;;;;;;1.60;1.42;;;;;;;;;;5029738;28;20400;-93
2022/11/05 13:30:23;;;;;;;1.58;1.48;;;;;;;;;;5017651;28;20389;-88
2022/11/05 13:33:00;;;;;;;1.67;1.48;;;;;;;;;;5017229;28;20415;-90
2022/11/05 13:35:28;;;;;;;1.70;1.60;;;;;;;;;;5015780;28;20420;-93
2022/11/05 13:40:57;;;;;;;1.65;1.30;;;;;;;;;;5017028;28;20392;-91
2022/11/05 13:43:29;;;;;;;2.08;1.80;;;;;;;;;;5030094;28;20464;-89
2022/11/05 13:46:07;;;;;;;2.88;2.10;;;;;;;;;;5016141;28;20381;-93
2022/11/05 13:48:54;;;;;;;2.20;1.90;;;;;;;;;;5030175;28;20411;-92
2022/11/05 13:51:26;;;;;;;2.40;1.77;;;;;;;;;;5015964;28;20413;-93
2022/11/05 13:54:01;;;;;;;2.65;2.00;;;;;;;;;;5015936;28;20403;-91
2022/11/05 13:56:33;;;;;;;2.80;2.30;;;;;;;;;;5015450;28;20394;-92
2022/11/05 13:58:59;;;;;;;2.55;2.30;;;;;;;;;;5028065;28;20381;-91
2022/11/05 14:01:28;;;;;;;2.50;2.30;;;;;;;;;;5015119;28;20404;-92
2022/11/05 14:03:55;;;;;;;2.95;2.75;;;;;;;;;;5014242;28;20463;-92
2022/11/05 14:06:32;;;;;;;3.17;2.85;;;;;;;;;;5025976;28;20502;-90
2022/11/05 14:09:01;;;;;;;3.08;2.88;;;;;;;;;;5027674;28;20472;-90
2022/11/05 14:11:30;;;;;;;3.00;2.80;;;;;;;;;;5014104;28;20471;-92
2022/11/05 14:13:58;;;;;;;2.72;2.53;;;;;;;;;;5014351;28;20407;-89
2022/11/05 14:16:26;;;;;;;2.92;2.72;;;;;;;;;;5017688;28;20391;-91
2022/11/05 14:19:15;;;;;;;2.95;2.65;;;;;;;;;;5031793;28;20413;-93
2022/11/05 14:21:48;;;;;;;2.50;2.35;;;;;;;;;;5003136;28;20425;-90
2022/11/05 14:24:20;;;;;;;3.50;3.00;;;;;;;;;;5032623;28;20433;-89
2022/11/05 14:27:08;;;;;;;3.10;2.80;;;;;;;;;;5043243;28;20380;-92
2022/11/05 14:29:37;;;;;;;2.72;2.53;;;;;;;;;;5022482;28;20450;-91
2022/11/05 14:32:30;;;;;;;2.90;2.70;;;;;;;;;;5028791;28;20762;-91
2022/11/05 14:35:14;;;;;;;3.15;2.85;;;;;;;;;;5028152;28;20393;-92
2022/11/05 14:37:41;;;;;;;3.10;2.80;;;;;;;;;;5015526;28;20381;-90
2022/11/05 14:40:25;;;;;;;3.08;2.80;;;;;;;;;;5031306;28;20950;-92
2022/11/05 14:42:53;;;;;;;2.65;2.45;;;;;;;;;;5017185;28;20742;-91
2022/11/05 14:45:29;;;;;;;3.22;2.88;;;;;;;;;;5029290;28;20476;-90
2022/11/05 14:47:56;;;;;;;3.78;2.70;;;;;;;;;;5014821;28;20909;-90
2022/11/05 14:50:26;;;;;;;3.13;2.50;;;;;;;;;;5035812;28;20849;-92
2022/11/05 14:52:53;;;;;;;2.15;1.95;;;;;;;;;;5023341;28;20801;-91
2022/11/05 14:55:25;;;;;;;2.28;2.00;;;;;;;;;;5034602;28;20410;-92
2022/11/05 14:57:51;;;;;;;2.30;2.10;;;;;;;;;;5004995;28;20866;-90
2022/11/05 15:00:35;;;;;;;2.22;2.05;;;;;;;;;;5014133;28;20435;-91
2022/11/05 15:03:24;;;;;;;2.83;2.60;;;;;;;;;;5026315;28;20437;-90
2022/11/05 15:05:51;;;;;;;3.80;3.00;;;;;;;;;;5013809;28;20445;-93
2022/11/05 15:08:28;;;;;;;3.13;2.83;;;;;;;;;;5026940;28;20729;-91
2022/11/05 15:10:57;;;;;;;3.25;3.00;;;;;;;;;;5013157;28;20405;-91
2022/11/05 15:13:35;;;;;;;3.40;3.08;;;;;;;;;;5013759;28;20389;-92
2022/11/05 15:16:02;;;;;;;3.35;3.05;;;;;;;;;;5014001;28;20384;-92
2022/11/05 15:18:46;;;;;;;3.97;3.67;;;;;;;;;;5016289;28;20381;-92
2022/11/05 15:21:14;;;;;;;3.78;3.47;;;;;;;;;;5013714;28;20416;-92
2022/11/05 15:23:41;;;;;;;4.00;3.70;;;;;;;;;;5033140;28;20481;-92
2022/11/05 15:26:23;;;;;;;3.60;3.30;;;;;;;;;;5033203;28;20387;-90
2022/11/05 15:28:50;;;;;;;8.40;4.07;;;;;;;;;;5033267;28;20444;-91
2022/11/05 15:31:16;;;;;;;3.80;3.50;;;;;;;;;;5019244;28;20410;-91
2022/11/05 15:33:43;;;;;;;3.20;2.90;;;;;;;;;;5024182;28;20403;-92
2022/11/05 15:36:28;;;;;;;3.80;3.42;;;;;;;;;;5032890;28;20437;-91
2022/11/05 15:38:54;;;;;;;3.50;3.20;;;;;;;;;;5030699;28;20378;-90
2022/11/05 15:41:21;;;;;;;3.17;2.75;;;;;;;;;;5012642;28;20395;-91
2022/11/05 15:43:48;;;;;;;3.40;3.10;;;;;;;;;;5012841;28;20392;-90
2022/11/05 15:46:23;;;;;;;3.13;2.92;;;;;;;;;;5032686;28;20375;-90
2022/11/05 15:48:54;;;;;;;3.00;2.80;;;;;;;;;;5000437;28;20375;-92
2022/11/05 15:51:21;;;;;;;3.45;3.05;;;;;;;;;;5032147;28;20403;-92
2022/11/05 15:53:47;;;;;;;3.40;3.00;;;;;;;;;;5005675;28;20432;-91
2022/11/05 15:56:25;;;;;;;3.38;3.08;;;;;;;;;;5020214;28;20416;-91
2022/11/05 15:59:00;;;;;;;3.20;2.90;;;;;;;;;;5023077;28;20850;-92
2022/11/05 16:01:27;;;;;;;3.83;3.33;;;;;;;;;;5012566;28;20400;-91
2022/11/05 16:03:58;;;;;;;3.83;3.53;;;;;;;;;;5026708;28;20540;-91
2022/11/05 16:06:27;;;;;;;3.50;3.20;;;;;;;;;;5012457;28;20447;-92
2022/11/05 16:08:54;;;;;;;3.50;3.00;;;;;;;;;;5026959;28;20388;-91
2022/11/05 16:11:21;;;;;;;2.83;2.63;;;;;;;;;;5011145;28;20916;-91
2022/11/05 16:13:47;;;;;;;2.60;2.40;;;;;;;;;;5012583;28;20387;-91
2022/11/05 16:16:13;;;;;;;2.65;2.45;;;;;;;;;;5012445;28;20385;-90
2022/11/05 16:18:39;;;;;;;2.58;2.38;;;;;;;;;;5013854;28;20738;-90
2022/11/05 16:21:06;;;;;;;2.22;2.08;;;;;;;;;;5018367;28;20452;-91
2022/11/05 16:23:40;;;;;;;2.60;2.40;;;;;;;;;;5026595;28;20376;-90
2022/11/05 16:26:26;;;;;;;2.60;2.40;;;;;;;;;;5015848;28;20395;-91
2022/11/05 16:28:53;;;;;;;3.08;2.50;;;;;;;;;;5016079;28;20385;-90
2022/11/05 16:31:37;;;;;;;3.00;2.70;;;;;;;;;;5015697;28;20404;-91
2022/11/05 16:34:03;;;;;;;2.78;2.55;;;;;;;;;;5015841;28;20381;-90
2022/11/05 16:36:30;;;;;;;2.97;2.78;;;;;;;;;;5015739;28;20770;-91
2022/11/05 16:38:56;;;;;;;3.22;2.92;;;;;;;;;;5022997;28;20920;-92
2022/11/05 16:41:23;;;;;;;3.20;3.00;;;;;;;;;;5015605;28;20395;-92
2022/11/05 16:43:52;;;;;;;3.47;3.20;;;;;;;;;;5016269;28;20449;-90
2022/11/05 16:46:18;;;;;;;5.10;3.47;;;;;;;;;;5015426;28;20381;-91
2022/11/05 16:48:44;;;;;;;3.65;3.42;;;;;;;;;;5015376;28;20411;-91
2022/11/05 16:51:11;;;;;;;3.60;3.30;;;;;;;;;;5015620;28;20503;-90
2022/11/05 16:53:37;;;;;;;4.00;3.55;;;;;;;;;;5015433;28;20388;-92
2022/11/05 16:56:03;;;;;;;3.40;3.10;;;;;;;;;;5015237;28;20436;-93
2022/11/05 16:58:29;;;;;;;3.70;3.40;;;;;;;;;;5028994;28;20423;-89
2022/11/05 17:00:59;;;;;;;4.50;4.10;;;;;;;;;;5035021;28;20513;-92
2022/11/05 17:03:24;;;;;;;4.22;3.90;;;;;;;;;;5019399;28;20388;-91
2022/11/05 17:05:50;;;;;;;4.67;4.27;;;;;;;;;;5022711;28;20375;-91
2022/11/05 17:08:17;;;;;;;4.78;4.28;;;;;;;;;;5021692;28;20459;-90
2022/11/05 17:10:42;;;;;;;5.05;4.65;;;;;;;;;;5017199;28;20381;-90
2022/11/05 17:13:12;;;;;;;6.28;5.78;;;;;;;;;;5022719;28;20407;-91
2022/11/05 17:15:38;;;;;;;6.45;5.95;;;;;;;;;;5020733;28;20393;-91
2022/11/05 17:18:04;;;;;;;6.03;5.53;;;;;;;;;;5020754;28;20384;-91
2022/11/05 17:20:41;;;;;;;6.53;5.97;;;;;;;;;;5022402;28;20443;-91
2022/11/05 17:23:09;;;;;;;7.88;6.55;;;;;;;;;;5014822;28;20415;-91
2022/11/05 17:25:35;;;;;;;6.70;6.10;;;;;;;;;;5034705;28;20385;-91
2022/11/05 17:28:01;;;;;;;7.32;6.68;;;;;;;;;;5034460;28;20391;-90
2022/11/05 17:30:27;;;;;;;6.57;5.90;;;;;;;;;;5033724;28;20380;-91
2022/11/05 17:32:53;;;;;;;7.40;6.80;;;;;;;;;;5034375;28;20469;-90
2022/11/05 17:35:19;;;;;;;7.03;6.40;;;;;;;;;;5026575;28;20439;-90
2022/11/05 17:37:45;;;;;;;6.95;6.35;;;;;;;;;;5014724;28;20385;-90
2022/11/05 17:40:15;;;;;;;7.30;6.70;;;;;;;;;;5020575;28;20463;-89
2022/11/05 17:42:41;;;;;;;6.53;6.00;;;;;;;;;;5021385;28;20439;-93
2022/11/05 17:45:08;;;;;;;7.70;6.70;;;;;;;;;;5014282;28;20915;-90
2022/11/05 17:47:34;;;;;;;6.32;5.82;;;;;;;;;;5034423;28;20714;-92
2022/11/05 17:50:00;;;;;;;7.47;6.87;;;;;;;;;;5031048;28;20399;-90
2022/11/05 17:52:27;;;;;;;8.23;7.47;;;;;;;;;;5014009;28;20409;-91
2022/11/05 17:54:53;;;;;;;9.43;8.52;;;;;;;;;;5028024;28;20387;-90
2022/11/05 17:57:19;;;;;;;8.85;8.05;;;;;;;;;;5016300;28;20380;-90
2022/11/05 17:59:45;;;;;;;7.85;7.18;;;;;;;;;;5030898;28;20384;-90
2022/11/05 18:02:11;;;;;;;9.05;8.15;;;;;;;;;;5044521;28;20480;-92
2022/11/05 18:04:38;;;;;;;7.57;6.87;;;;;;;;;;5052141;28;20382;-91
2022/11/05 18:07:04;;;;;;;7.00;6.40;;;;;;;;;;5056049;28;20434;-90
2022/11/05 18:09:30;;;;;;;11.27;5.95;;;;;;;;;;5042113;28;20396;-89
2022/11/05 18:11:56;;;;;;;9.25;6.10;;;;;;;;;;5019941;28;20761;-91
2022/11/05 18:14:22;;;;;;;6.38;5.30;;;;;;;;;;5015085;28;20388;-91
2022/11/05 18:16:49;;;;;;;6.53;4.88;;;;;;;;;;5014628;28;20380;-92
2022/11/05 18:19:15;;;;;;;5.97;5.45;;;;;;;;;;5014271;28;20399;-91
2022/11/05 18:21:41;;;;;;;5.82;5.28;;;;;;;;;;5014034;28;20439;-91
2022/11/05 18:24:07;;;;;;;5.20;4.70;;;;;;;;;;5013726;28;20384;-91
2022/11/05 18:26:33;;;;;;;5.30;4.80;;;;;;;;;;5013000;28;20894;-92
2022/11/05 18:29:00;;;;;;;6.43;4.65;;;;;;;;;;5013964;28;20391;-90
2022/11/05 18:31:26;;;;;;;6.38;5.03;;;;;;;;;;5027662;28;20762;-91
2022/11/05 18:33:54;;;;;;;6.53;4.82;;;;;;;;;;5013533;28;20465;-91
2022/11/05 18:36:21;;;;;;;4.75;4.32;;;;;;;;;;5013669;28;20400;-91
2022/11/05 18:38:48;;;;;;;7.30;4.90;;;;;;;;;;5014143;28;20397;-90
2022/11/05 18:41:14;;;;;;;5.57;4.15;;;;;;;;;;5012756;28;20433;-90
2022/11/05 18:43:40;;;;;;;5.63;4.60;;;;;;;;;;5013437;28;20399;-91
2022/11/05 18:46:06;;;;;;;7.18;4.30;;;;;;;;;;5013587;28;20392;-91
2022/11/05 18:48:33;;;;;;;5.63;4.70;;;;;;;;;;5027111;28;20381;-91
2022/11/05 18:50:59;;;;;;;5.90;4.35;;;;;;;;;;5013224;28;20460;-92
2022/11/05 18:53:26;;;;;;;6.03;5.53;;;;;;;;;;5013226;28;20491;-92
2022/11/05 18:55:52;;;;;;;6.80;6.10;;;;;;;;;;5018575;28;20434;-90
2022/11/05 18:58:18;;;;;;;11.93;9.20;;;;;;;;;;5013100;28;20746;-91
2022/11/05 19:00:44;;;;;;;8.80;7.90;;;;;;;;;;5013021;28;20390;-91
2022/11/05 19:03:10;;;;;;;9.52;8.55;;;;;;;;;;5013106;28;20405;-91
2022/11/05 19:05:36;;;;;;;9.52;7.57;;;;;;;;;;5012970;28;20787;-90
2022/11/05 19:08:02;;;;;;;7.65;7.05;;;;;;;;;;5012944;28;20389;-91
2022/11/05 19:10:28;;;;;;;7.53;6.93;;;;;;;;;;5012883;28;20416;-89
2022/11/05 19:12:54;;;;;;;8.07;7.38;;;;;;;;;;5012720;28;20419;-90
2022/11/05 19:15:20;;;;;;;7.28;6.68;;;;;;;;;;5014965;28;20385;-90
2022/11/05 19:17:46;;;;;;;7.43;6.73;;;;;;;;;;5012883;28;20742;-92
2022/11/05 19:20:13;;;;;;;8.48;7.68;;;;;;;;;;5012680;28;20889;-90
2022/11/05 19:22:39;;;;;;;7.70;6.90;;;;;;;;;;5014376;28;20393;-90
2022/11/05 19:25:05;;;;;;;7.47;6.15;;;;;;;;;;5024929;28;20393;-91
2022/11/05 19:27:31;;;;;;;6.53;5.53;;;;;;;;;;5032433;28;20419;-90
2022/11/05 19:29:57;;;;;;;6.80;6.07;;;;;;;;;;5012626;28;20392;-90
2022/11/05 19:32:23;;;;;;;5.88;5.38;;;;;;;;;;5012647;28;20409;-90
2022/11/05 19:34:49;;;;;;;6.18;5.63;;;;;;;;;;5012478;28;20383;-92
2022/11/05 19:37:18;;;;;;;6.65;5.97;;;;;;;;;;5012072;28;20453;-91
2022/11/05 19:39:44;;;;;;;6.72;6.05;;;;;;;;;;5012763;28;20384;-90
2022/11/05 19:42:10;;;;;;;7.07;6.38;;;;;;;;;;5012418;28;20883;-91
2022/11/05 19:44:36;;;;;;;7.00;6.40;;;;;;;;;;5012446;28;20385;-90
2022/11/05 19:47:02;;;;;;;9.00;8.10;;;;;;;;;;5012525;28;20381;-91
2022/11/05 19:49:28;;;;;;;7.38;6.68;;;;;;;;;;5012349;28;20743;-91
2022/11/05 19:51:54;;;;;;;6.85;6.15;;;;;;;;;;5012164;28;20409;-90
2022/11/05 19:54:20;;;;;;;6.88;6.13;;;;;;;;;;5026278;28;20808;-90
2022/11/05 19:56:48;;;;;;;7.13;6.53;;;;;;;;;;5019539;28;20415;-89
2022/11/05 19:59:14;;;;;;;13.52;12.32;;;;;;;;;;5016377;28;20424;-90
2022/11/05 20:01:40;;;;;;;12.23;11.13;;;;;;;;;;5016482;28;20889;-91
2022/11/05 20:04:06;;;;;;;9.03;8.33;;;;;;;;;;5024491;28;20400;-90
2022/11/05 20:06:36;;;;;;;9.00;8.20;;;;;;;;;;5016209;28;20389;-91
2022/11/05 20:09:03;;;;;;;8.23;7.43;;;;;;;;;;5017153;28;20412;-89
2022/11/05 20:11:29;;;;;;;7.57;6.88;;;;;;;;;;5016292;28;20889;-91
2022/11/05 20:13:56;;;;;;;7.03;6.43;;;;;;;;;;5030107;28;20386;-90
2022/11/05 20:16:23;;;;;;;7.28;6.57;;;;;;;;;;5008700;28;20371;-89
2022/11/05 20:18:50;;;;;;;6.78;6.18;;;;;;;;;;5018250;28;20379;-88
2022/11/05 20:21:16;;;;;;;6.90;6.30;;;;;;;;;;5035480;28;20379;-90
2022/11/05 20:23:42;;;;;;;6.97;6.37;;;;;;;;;;5030998;28;20492;-91
2022/11/05 20:26:09;;;;;;;6.60;6.00;;;;;;;;;;5015785;28;20428;-91
2022/11/05 20:28:36;;;;;;;6.75;6.20;;;;;;;;;;5024503;28;20371;-90
2022/11/05 20:31:12;;;;;;;6.78;6.20;;;;;;;;;;5021452;28;20460;-89
2022/11/05 20:33:39;;;;;;;6.43;5.82;;;;;;;;;;5027199;28;20446;-89
2022/11/05 20:36:08;;;;;;;5.80;5.23;;;;;;;;;;5015643;28;20431;-90
2022/11/05 20:38:34;;;;;;;7.93;6.82;;;;;;;;;;5015629;28;20480;-90
2022/11/05 20:41:05;;;;;;;7.23;6.43;;;;;;;;;;5015317;28;20380;-90
2022/11/05 20:43:31;;;;;;;8.13;6.88;;;;;;;;;;5021003;28;20458;-90
2022/11/05 20:45:57;;;;;;;9.32;6.88;;;;;;;;;;5023780;28;20484;-90
2022/11/05 20:48:23;;;;;;;9.30;7.63;;;;;;;;;;5014329;28;20443;-91
2022/11/05 20:50:49;;;;;;;8.95;7.35;;;;;;;;;;5015422;28;20451;-90
2022/11/05 20:53:16;;;;;;;7.25;6.55;;;;;;;;;;5015246;28;20415;-89
2022/11/05 20:55:42;;;;;;;7.72;6.22;;;;;;;;;;5015392;28;20741;-92
2022/11/05 20:58:07;;;;;;;6.97;6.37;;;;;;;;;;5015336;28;20476;-89
2022/11/05 21:00:34;;;;;;;6.68;6.07;;;;;;;;;;5015030;28;20430;-90
2022/11/05 21:02:59;;;;;;;7.40;6.28;;;;;;;;;;5028692;28;20448;-90
2022/11/05 21:05:25;;;;;;;6.63;5.70;;;;;;;;;;5029875;28;20472;-91
2022/11/05 21:07:51;;;;;;;6.80;6.10;;;;;;;;;;5024920;28;20395;-90
2022/11/05 21:10:17;;;;;;;7.23;6.53;;;;;;;;;;5030897;28;20387;-92
2022/11/05 21:12:43;;;;;;;7.70;6.25;;;;;;;;;;5016430;28;20448;-89
2022/11/05 21:15:10;;;;;;;7.82;6.72;;;;;;;;;;5017418;28;20428;-89
2022/11/05 21:17:36;;;;;;;8.23;6.95;;;;;;;;;;5032533;28;20419;-90
2022/11/05 21:20:03;;;;;;;7.90;6.57;;;;;;;;;;5009055;28;20404;-90
2022/11/05 21:22:29;;;;;;;7.78;6.53;;;;;;;;;;5009041;28;20941;-90
2022/11/05 21:24:58;;;;;;;9.48;7.70;;;;;;;;;;5013059;28;20476;-90
2022/11/05 21:27:24;;;;;;;8.80;7.60;;;;;;;;;;5013465;28;20377;-89
2022/11/05 21:29:50;;;;;;;7.80;7.05;;;;;;;;;;5014298;28;20385;-89
2022/11/05 21:32:16;;;;;;;8.20;7.13;;;;;;;;;;5014517;28;20415;-91
2022/11/05 21:34:42;;;;;;;7.78;7.00;;;;;;;;;;5016400;28;20375;-91
2022/11/05 21:37:08;;;;;;;7.28;6.57;;;;;;;;;;5025275;28;20443;-90
2022/11/05 21:39:34;;;;;;;6.93;6.23;;;;;;;;;;5014516;28;20389;-90
2022/11/05 21:42:01;;;;;;;7.13;6.43;;;;;;;;;;5019129;28;20381;-90
2022/11/05 21:44:27;;;;;;;8.32;7.47;;;;;;;;;;5032550;28;20389;-90
2022/11/05 21:46:59;;;;;;;8.52;7.63;;;;;;;;;;5046148;28;20408;-92